Time;durP1;ratioP1;P1;durP2;ratioP2;P2;SDS_P1;SDS_P2;PMS_P1;PMS_P2;Temp;Humidity;BMP_temperature;BMP_pressure;BME280_temperature;BME280_humidity;BME280_pressure;Samples;Min_cycle;Max_cycle;Signal;HPM_P1;HPM_P2
2022/04/17 00:00:46;;;;;;;5.73;3.50;;;12.20;99.90;;;;;;5094273;23;20153;-94
2022/04/17 00:02:47;;;;;;;7.50;3.63;;;12.30;99.90;;;;;;5095005;23;20231;-94
2022/04/17 00:04:48;;;;;;;8.60;4.53;;;12.60;99.90;;;;;;5094185;23;20205;-94
2022/04/17 00:06:48;;;;;;;5.40;3.30;;;12.40;99.90;;;;;;5119249;23;20158;-95
2022/04/17 00:08:49;;;;;;;6.80;3.93;;;12.40;99.90;;;;;;5094216;23;20611;-95
2022/04/17 00:10:50;;;;;;;7.50;3.73;;;12.30;99.90;;;;;;5119116;23;20618;-94
2022/04/17 00:12:51;;;;;;;5.27;3.53;;;12.30;99.90;;;;;;5093860;23;20272;-95
2022/04/17 00:14:54;;;;;;;6.97;3.50;;;12.20;99.90;;;;;;5118374;23;20145;-95
2022/04/17 00:16:55;;;;;;;5.77;3.47;;;12.20;99.90;;;;;;5093940;23;20224;-95
2022/04/17 00:18:55;;;;;;;6.17;3.50;;;12.20;99.90;;;;;;5119030;23;20157;-95
2022/04/17 00:20:58;;;;;;;6.93;3.60;;;12.20;99.90;;;;;;5094127;23;20153;-95
2022/04/17 00:22:59;;;;;;;7.10;3.73;;;12.30;99.90;;;;;;5119296;23;20161;-95
2022/04/17 00:25:01;;;;;;;7.30;4.03;;;12.30;99.90;;;;;;5093849;23;20195;-95
2022/04/17 00:27:02;;;;;;;5.50;3.37;;;12.30;99.90;;;;;;5093960;23;20149;-94
2022/04/17 00:29:03;;;;;;;8.10;3.63;;;12.30;99.90;;;;;;5094391;23;20252;-95
2022/04/17 00:31:04;;;;;;;8.70;3.60;;;12.20;99.90;;;;;;5119067;23;20152;-95
2022/04/17 00:33:04;;;;;;;9.97;4.00;;;12.20;99.90;;;;;;5094363;23;20153;-95
2022/04/17 00:35:07;;;;;;;5.47;3.23;;;12.00;99.90;;;;;;5094004;23;20619;-95
2022/04/17 00:37:08;;;;;;;10.43;3.70;;;12.00;99.90;;;;;;5093959;23;20168;-94
2022/04/17 00:39:09;;;;;;;13.80;3.93;;;12.00;99.90;;;;;;5069626;23;20150;-94
2022/04/17 00:41:10;;;;;;;9.80;3.50;;;12.10;99.90;;;;;;5094236;23;20153;-95
2022/04/17 00:43:29;;;;;;;10.13;3.37;;;12.20;99.90;;;;;;5119524;23;20551;-94
2022/04/17 00:45:30;;;;;;;8.00;3.33;;;12.20;99.90;;;;;;5093964;23;20148;-94
2022/04/17 00:47:30;;;;;;;6.00;3.20;;;12.00;99.90;;;;;;5118620;23;20681;-95
2022/04/17 00:49:32;;;;;;;5.70;3.43;;;11.90;99.90;;;;;;5093675;23;20168;-94
2022/04/17 00:51:36;;;;;;;7.43;3.20;;;11.90;99.90;;;;;;5093531;23;20232;-95
2022/04/17 00:53:38;;;;;;;6.53;3.00;;;12.10;99.90;;;;;;5093839;23;20492;-94
2022/04/17 00:55:40;;;;;;;5.67;3.37;;;12.20;99.90;;;;;;5118124;23;20152;-95
2022/04/17 00:57:41;;;;;;;6.97;3.33;;;11.90;99.90;;;;;;5094026;23;20251;-95
2022/04/17 00:59:48;;;;;;;7.47;3.30;;;11.60;99.90;;;;;;5093405;23;20157;-95
2022/04/17 01:01:49;;;;;;;6.63;3.40;;;11.80;99.90;;;;;;5093441;23;20156;-94
2022/04/17 01:03:50;;;;;;;7.47;3.60;;;11.90;99.90;;;;;;5117983;23;20614;-95
2022/04/17 01:05:51;;;;;;;6.70;3.40;;;12.00;99.90;;;;;;5094011;23;20175;-95
2022/04/17 01:07:53;;;;;;;4.97;2.80;;;11.90;99.90;;;;;;5093775;23;20244;-94
2022/04/17 01:09:56;;;;;;;5.40;3.47;;;12.00;99.90;;;;;;5093818;23;20154;-94
2022/04/17 01:11:57;;;;;;;5.33;3.07;;;12.00;99.90;;;;;;5094061;23;20257;-95
2022/04/17 01:13:59;;;;;;;6.10;3.33;;;12.20;99.90;;;;;;5093901;23;20157;-95
2022/04/17 01:16:03;;;;;;;7.67;3.40;;;12.30;99.90;;;;;;5094635;23;20300;-95
2022/04/17 01:18:05;;;;;;;7.30;3.10;;;12.30;99.90;;;;;;5094140;23;20507;-95
2022/04/17 01:20:06;;;;;;;5.77;3.30;;;11.90;99.90;;;;;;5093832;23;20512;-94
2022/04/17 01:22:11;;;;;;;7.73;2.97;;;11.70;99.90;;;;;;5119048;23;20148;-94
2022/04/17 01:28:52;;;;;;;8.97;3.50;;;11.80;99.90;;;;;;5118509;23;20156;-94
2022/04/17 01:30:54;;;;;;;4.90;3.07;;;11.80;99.90;;;;;;5094262;23;20149;-94
2022/04/17 01:32:55;;;;;;;8.13;3.50;;;11.80;99.90;;;;;;5093756;23;20670;-95
2022/04/17 01:34:55;;;;;;;5.43;3.13;;;11.90;99.90;;;;;;5093536;23;20165;-94
2022/04/17 01:36:57;;;;;;;5.13;2.93;;;12.00;99.90;;;;;;5093834;23;20176;-94
2022/04/17 01:38:58;;;;;;;5.97;3.13;;;11.80;99.90;;;;;;5118373;23;20148;-95
2022/04/17 01:41:01;;;;;;;8.03;3.50;;;11.50;99.90;;;;;;5094434;23;20149;-95
2022/04/17 01:43:10;;;;;;;6.63;3.03;;;11.30;99.90;;;;;;5094961;23;20188;-94
2022/04/17 01:45:11;;;;;;;7.00;3.13;;;11.30;99.90;;;;;;5093861;23;20152;-95
2022/04/17 01:47:12;;;;;;;5.77;3.40;;;11.50;99.90;;;;;;5118059;23;20197;-94
2022/04/17 01:49:15;;;;;;;4.97;2.70;;;11.60;99.90;;;;;;5093655;23;20180;-94
2022/04/17 01:51:15;;;;;;;6.13;3.27;;;11.60;99.90;;;;;;5118422;23;20152;-95
2022/04/17 01:53:16;;;;;;;8.23;3.23;;;11.50;99.90;;;;;;5093610;23;20279;-95
2022/04/17 01:55:17;;;;;;;6.50;3.20;;;11.40;99.90;;;;;;5119153;23;20176;-96
2022/04/17 01:57:18;;;;;;;7.63;2.80;;;11.60;99.90;;;;;;5119006;23;20167;-94
2022/04/17 01:59:21;;;;;;;6.23;3.20;;;11.80;99.90;;;;;;5093923;23;20219;-95
2022/04/17 02:01:22;;;;;;;5.63;3.03;;;11.70;99.90;;;;;;5093988;23;20224;-95
2022/04/17 02:03:23;;;;;;;5.97;3.43;;;11.60;99.90;;;;;;5093819;23;20161;-94
2022/04/17 02:05:25;;;;;;;6.33;3.00;;;11.40;99.90;;;;;;5093764;23;20188;-94
2022/04/17 02:07:26;;;;;;;7.27;3.57;;;11.30;99.90;;;;;;5093909;23;20173;-94
2022/04/17 02:09:27;;;;;;;5.73;3.30;;;11.10;99.90;;;;;;5120099;23;20183;-95
2022/04/17 02:11:30;;;;;;;9.10;2.90;;;11.10;99.90;;;;;;5095608;23;20219;-94
2022/04/17 02:13:31;;;;;;;6.20;3.13;;;11.00;99.90;;;;;;5095279;23;20153;-95
2022/04/17 02:15:33;;;;;;;5.07;3.00;;;11.00;99.90;;;;;;5095554;23;20205;-95
2022/04/17 02:17:36;;;;;;;5.43;3.23;;;10.90;99.90;;;;;;5097223;23;20180;-95
2022/04/17 02:19:36;;;;;;;7.37;3.10;;;10.70;99.90;;;;;;5095797;23;20681;-95
2022/04/17 02:21:38;;;;;;;6.40;3.00;;;10.50;99.90;;;;;;5095722;23;20189;-95
2022/04/17 02:23:43;;;;;;;8.30;3.57;;;10.70;99.90;;;;;;5095632;23;20216;-94
2022/04/17 02:25:45;;;;;;;6.40;3.00;;;10.70;99.90;;;;;;5095584;23;20196;-95
2022/04/17 02:27:46;;;;;;;5.97;3.20;;;10.70;99.90;;;;;;5095663;23;20184;-95
2022/04/17 02:29:47;;;;;;;7.97;3.40;;;10.60;99.90;;;;;;5096173;23;20178;-94
2022/04/17 02:31:48;;;;;;;6.90;3.37;;;10.60;99.90;;;;;;5095906;23;20185;-95
2022/04/17 02:33:48;;;;;;;6.83;2.87;;;10.50;99.90;;;;;;5095469;23;20145;-94
2022/04/17 02:35:49;;;;;;;4.80;3.00;;;10.00;99.90;;;;;;5120190;23;20157;-95
2022/04/17 02:37:52;;;;;;;5.00;3.10;;;9.80;99.90;;;;;;5096076;23;20604;-95
2022/04/17 02:39:53;;;;;;;6.60;2.90;;;10.00;99.90;;;;;;5095605;23;20153;-95
2022/04/17 02:41:54;;;;;;;6.80;3.00;;;10.00;99.90;;;;;;5095842;23;20145;-96
2022/04/17 02:43:57;;;;;;;6.23;3.33;;;10.10;99.90;;;;;;5120385;23;20152;-94
2022/04/17 02:46:00;;;;;;;5.23;3.10;;;9.90;99.90;;;;;;5094208;23;20240;-95
2022/04/17 02:48:01;;;;;;;4.47;2.70;;;9.50;99.90;;;;;;5095003;23;20181;-96
2022/04/17 02:50:05;;;;;;;5.67;3.03;;;9.70;99.90;;;;;;5095950;23;20149;-94
2022/04/17 02:52:08;;;;;;;5.30;3.03;;;10.00;99.90;;;;;;5095249;23;20193;-94
2022/04/17 02:54:09;;;;;;;5.73;2.70;;;10.20;99.90;;;;;;5095227;23;20560;-95
2022/04/17 02:56:11;;;;;;;5.50;2.80;;;10.20;99.90;;;;;;5119977;23;20223;-95
2022/04/17 02:58:14;;;;;;;5.30;3.00;;;10.20;99.90;;;;;;5095206;23;20171;-95
2022/04/17 03:00:23;;;;;;;6.23;2.90;;;9.90;99.90;;;;;;5095014;23;20157;-95
2022/04/17 03:07:08;;;;;;;7.07;2.40;;;9.60;99.90;;;;;;5119651;23;20176;-94
2022/04/17 03:09:21;;;;;;;4.60;2.13;;;9.40;99.90;;;;;;5095620;23;20235;-95
2022/04/17 08:14:42;;;;;;;;;;;;;;;;;;;;;
2022/04/17 08:17:20;;;;;;;2.33;1.38;;;23.20;99.90;;;;;;5037211;23;20206;-94
2022/04/17 08:20:06;;;;;;;3.15;1.40;;;22.20;99.90;;;;;;5021541;23;20154;-94
2022/04/17 08:29:14;;;;;;;2.47;1.50;;;24.70;99.90;;;;;;5125736;23;20341;-93
2022/04/17 15:53:25;;;;;;;1.02;0.70;;;22.00;99.90;;;;;;5134723;22;20333;-94
2022/04/17 15:56:18;;;;;;;;;;;;;;;;;;;;;
2022/04/17 15:59:28;;;;;;;0.50;0.50;;;22.20;99.90;;;;;;5092753;23;20183;-94
2022/04/17 16:02:14;;;;;;;1.77;0.70;;;21.90;99.90;;;;;;5070724;23;20192;-95
2022/04/17 16:05:03;;;;;;;2.28;0.80;;;21.60;99.90;;;;;;5108571;23;20167;-96
2022/04/17 16:07:49;;;;;;;;;;;;;;;;;;;;;
2022/04/17 16:11:04;;;;;;;;;;;;;;;;;;;;;
2022/04/17 16:14:03;;;;;;;;;;;;;;;;;;;;;
2022/04/17 16:17:35;;;;;;;;;;;;;;;;;;;;;
2022/04/17 16:30:40;;;;;;;;;;;;;;;;;;;;;
2022/04/17 16:33:22;;;;;;;0.90;0.60;;;22.10;99.90;;;;;;5117510;23;20355;-95
2022/04/17 16:54:35;;;;;;;1.45;0.60;;;21.20;99.90;;;;;;4874388;24;20187;-95
2022/04/17 17:04:40;;;;;;;2.92;0.70;;;21.20;99.90;;;;;;4918060;24;20169;-95
2022/04/17 17:08:08;;;;;;;;;;;;;;;;;;;;;
2022/04/17 17:11:42;;;;;;;;;;;;;;;;;;;;;
2022/04/17 17:29:49;;;;;;;;;;;;;;;;;;;;;
2022/04/17 17:43:41;;;;;;;;;;;;;;;;;;;;;
2022/04/17 17:47:08;;;;;;;;;;;;;;;;;;;;;
2022/04/17 17:53:05;;;;;;;1.20;0.70;;;21.40;99.90;;;;;;4904508;24;20726;-94
2022/04/17 17:55:06;;;;;;;5.60;0.75;;;21.20;99.90;;;;;;4903905;24;20158;-93
2022/04/17 17:57:09;;;;;;;2.08;0.85;;;21.10;99.90;;;;;;4941607;23;20181;-93
2022/04/17 17:59:10;;;;;;;1.02;0.70;;;21.10;99.90;;;;;;5069235;23;20240;-94
2022/04/17 18:01:12;;;;;;;2.28;0.80;;;21.10;99.90;;;;;;5093786;23;20149;-94
2022/04/17 18:03:13;;;;;;;1.45;0.80;;;20.90;99.90;;;;;;5118167;23;20155;-93
2022/04/17 18:05:13;;;;;;;1.33;0.70;;;20.90;99.90;;;;;;5117824;23;20599;-94
2022/04/17 18:07:14;;;;;;;2.58;0.90;;;20.80;99.90;;;;;;5093050;23;20204;-93
2022/04/17 18:16:14;;;;;;;5.00;0.70;;;20.20;99.90;;;;;;5118142;23;20180;-95
2022/04/17 18:18:16;;;;;;;2.75;0.93;;;20.30;99.90;;;;;;5093343;23;20185;-95
2022/04/17 18:20:17;;;;;;;4.25;0.90;;;20.30;99.90;;;;;;5093481;23;20635;-94
2022/04/17 18:24:39;;;;;;;1.27;0.80;;;20.00;99.90;;;;;;5118649;23;20160;-94
2022/04/17 18:26:41;;;;;;;2.90;1.00;;;20.00;99.90;;;;;;5093847;23;20153;-95
2022/04/17 18:28:43;;;;;;;1.60;0.88;;;20.10;99.90;;;;;;5093329;23;20195;-94
2022/04/17 18:30:44;;;;;;;1.50;1.05;;;20.10;99.90;;;;;;5093542;23;20153;-95
2022/04/17 18:32:45;;;;;;;2.40;1.00;;;20.00;99.90;;;;;;5093514;23;20192;-93
2022/04/17 18:34:46;;;;;;;6.60;1.25;;;19.60;99.90;;;;;;5093466;23;20556;-92
2022/04/17 18:36:50;;;;;;;4.05;1.40;;;19.60;99.90;;;;;;5093543;23;20153;-95
2022/04/17 18:38:54;;;;;;;4.65;1.67;;;19.40;99.90;;;;;;5118529;23;20148;-94
2022/04/17 18:40:55;;;;;;;6.60;1.95;;;19.30;99.90;;;;;;5118295;23;20148;-94
2022/04/17 18:43:05;;;;;;;5.70;2.65;;;19.30;99.90;;;;;;5093309;23;20149;-94
2022/04/17 18:45:06;;;;;;;5.70;2.10;;;19.40;99.90;;;;;;5093546;23;20157;-95
2022/04/17 18:47:07;;;;;;;3.65;1.70;;;19.50;99.90;;;;;;5093316;23;20176;-93
2022/04/17 18:49:15;;;;;;;4.53;1.92;;;19.50;99.90;;;;;;5117812;23;20743;-95
2022/04/17 18:51:16;;;;;;;5.53;1.80;;;19.30;99.90;;;;;;5094687;23;20152;-94
2022/04/17 18:53:17;;;;;;;3.45;1.40;;;19.10;99.90;;;;;;5095530;23;20223;-94
2022/04/17 18:55:18;;;;;;;2.72;1.35;;;19.20;99.90;;;;;;5119953;23;20595;-96
2022/04/17 18:57:21;;;;;;;4.68;1.48;;;19.10;99.90;;;;;;5095550;23;20169;-93
2022/04/17 18:59:22;;;;;;;2.25;1.17;;;19.10;99.90;;;;;;5120403;23;20199;-93
2022/04/17 19:01:26;;;;;;;2.42;1.20;;;19.10;99.90;;;;;;5094962;23;20161;-94
2022/04/17 19:03:27;;;;;;;3.08;1.48;;;19.20;99.90;;;;;;5094816;23;20472;-94
2022/04/17 19:05:28;;;;;;;2.53;1.23;;;19.00;99.90;;;;;;5094858;23;20153;-93
2022/04/17 19:07:29;;;;;;;7.35;1.48;;;19.00;99.90;;;;;;5119057;23;20192;-94
2022/04/17 19:09:31;;;;;;;2.28;1.48;;;18.80;99.90;;;;;;5095370;23;20163;-96
2022/04/17 19:14:27;;;;;;;5.40;2.72;;;18.50;99.90;;;;;;5119443;23;20161;-92
2022/04/17 19:16:22;;;;;;;3.38;2.22;;;18.50;99.90;;;;;;5115052;23;20156;-95
2022/04/17 19:18:25;;;;;;;5.90;2.80;;;18.40;99.90;;;;;;5096181;23;20169;-94
2022/04/17 19:20:29;;;;;;;8.60;4.38;;;18.30;99.90;;;;;;5094654;23;20153;-93
2022/04/17 19:22:30;;;;;;;31.88;17.85;;;18.40;99.90;;;;;;5094654;23;20782;-94
2022/04/17 19:24:31;;;;;;;34.60;23.65;;;18.40;99.90;;;;;;5119388;23;20151;-93
2022/04/17 19:26:35;;;;;;;35.58;24.88;;;18.50;99.90;;;;;;5120330;23;20184;-95
2022/04/17 19:28:36;;;;;;;32.60;24.30;;;18.50;99.90;;;;;;5094516;23;20367;-93
2022/04/17 19:35:14;;;;;;;24.20;17.67;;;18.60;99.90;;;;;;5095018;23;20161;-93
2022/04/17 19:35:19;;;;;;;17.02;8.18;;;18.40;99.90;;;;;;5119538;23;20155;-93
2022/04/17 19:37:20;;;;;;;21.70;9.13;;;18.10;99.90;;;;;;5095396;23;20173;-92
2022/04/17 19:39:26;;;;;;;25.38;11.70;;;18.10;99.90;;;;;;5119314;23;20152;-95
2022/04/17 19:41:27;;;;;;;20.55;10.43;;;18.10;99.90;;;;;;5094268;23;20261;-93
2022/04/17 19:43:28;;;;;;;18.02;7.75;;;18.20;99.90;;;;;;5119046;23;20291;-93
2022/04/17 19:45:30;;;;;;;18.42;7.88;;;18.10;99.90;;;;;;5093989;23;20153;-96
2022/04/17 19:47:31;;;;;;;20.92;8.98;;;17.90;99.90;;;;;;5119916;23;20635;-95
2022/04/17 19:49:34;;;;;;;18.70;7.07;;;17.90;99.90;;;;;;5094866;23;20199;-95
2022/04/17 19:51:35;;;;;;;17.85;7.80;;;17.80;99.90;;;;;;5094505;23;20532;-95
2022/04/17 19:53:36;;;;;;;13.63;5.88;;;17.90;99.90;;;;;;5095274;23;20179;-95
2022/04/17 19:55:42;;;;;;;10.45;5.45;;;17.60;99.90;;;;;;5094500;23;20173;-95
2022/04/17 19:57:43;;;;;;;10.25;3.75;;;17.40;99.90;;;;;;5094705;23;20169;-96
2022/04/17 19:59:44;;;;;;;8.40;3.88;;;17.40;99.90;;;;;;5119165;23;20168;-95
2022/04/17 20:01:46;;;;;;;9.07;3.65;;;17.20;99.90;;;;;;5118912;23;20159;-94
2022/04/17 20:03:47;;;;;;;10.52;4.10;;;17.10;99.90;;;;;;5119276;23;20160;-95
2022/04/17 20:05:49;;;;;;;8.88;3.10;;;17.10;99.90;;;;;;5119274;23;20183;-96
2022/04/17 20:07:52;;;;;;;7.72;3.67;;;17.40;99.90;;;;;;5094279;23;20261;-96
2022/04/17 20:09:53;;;;;;;6.80;2.80;;;17.70;99.90;;;;;;5094472;23;20169;-95
2022/04/17 20:11:56;;;;;;;6.65;3.20;;;17.70;99.90;;;;;;5094785;23;20248;-94
2022/04/17 20:14:02;;;;;;;5.45;2.70;;;17.40;99.90;;;;;;5094391;23;20239;-95
2022/04/17 20:16:13;;;;;;;4.53;2.60;;;17.30;99.90;;;;;;5095854;23;20648;-96
2022/04/17 20:18:18;;;;;;;8.23;2.28;;;17.30;99.90;;;;;;5094389;23;20527;-95
2022/04/17 20:20:19;;;;;;;3.38;2.10;;;17.10;99.90;;;;;;5093981;23;20153;-95
2022/04/17 20:22:23;;;;;;;3.88;1.92;;;16.90;99.90;;;;;;5094633;23;20160;-96
2022/04/17 20:24:30;;;;;;;4.10;2.00;;;16.80;99.90;;;;;;5094215;23;20253;-95
2022/04/17 20:26:33;;;;;;;3.85;1.80;;;17.00;99.90;;;;;;5118359;23;20156;-94
2022/04/17 20:28:34;;;;;;;13.20;1.95;;;17.10;99.90;;;;;;5094204;23;20196;-95
2022/04/17 20:30:35;;;;;;;5.57;1.55;;;16.90;99.90;;;;;;5095159;23;20160;-95
2022/04/17 20:32:58;;;;;;;3.13;1.63;;;16.70;99.90;;;;;;5094284;23;20188;-94
2022/04/17 20:35:10;;;;;;;4.75;1.60;;;16.50;99.90;;;;;;5119169;23;20136;-96
2022/04/17 20:37:11;;;;;;;3.78;1.42;;;16.40;99.90;;;;;;5094279;23;20207;-94
2022/04/17 20:39:12;;;;;;;5.07;1.42;;;16.50;99.90;;;;;;5094315;23;20149;-94
2022/04/17 20:41:13;;;;;;;3.63;1.33;;;16.40;99.90;;;;;;5095304;23;20204;-95
2022/04/17 20:50:33;;;;;;;2.35;1.08;;;16.20;99.90;;;;;;5119048;23;20148;-94
2022/04/17 20:52:34;;;;;;;3.35;1.10;;;16.00;99.90;;;;;;5093941;23;20236;-94
2022/04/17 20:54:41;;;;;;;2.47;1.13;;;15.90;99.90;;;;;;5121731;23;20206;-94
2022/04/17 20:56:42;;;;;;;2.00;0.90;;;15.80;99.90;;;;;;5094357;23;20235;-96
2022/04/17 20:58:43;;;;;;;2.40;1.10;;;15.90;99.90;;;;;;5094510;23;20568;-95
2022/04/17 21:00:44;;;;;;;4.55;1.00;;;15.90;99.90;;;;;;5094632;23;20503;-95
2022/04/17 21:02:48;;;;;;;2.88;1.00;;;16.10;99.90;;;;;;5119464;23;20635;-95
2022/04/17 21:04:49;;;;;;;3.20;0.90;;;16.20;99.90;;;;;;5120396;23;20148;-96
2022/04/17 21:06:49;;;;;;;1.45;0.88;;;16.10;99.90;;;;;;5094692;23;20160;-95
2022/04/17 21:08:50;;;;;;;2.33;1.05;;;16.20;99.90;;;;;;5119131;23;20239;-95
2022/04/17 21:11:03;;;;;;;4.47;0.90;;;16.20;99.90;;;;;;5118678;23;20164;-95
2022/04/17 21:13:16;;;;;;;2.65;0.82;;;16.40;99.90;;;;;;5118982;23;20190;-95
2022/04/17 21:15:17;;;;;;;4.03;0.90;;;16.50;99.90;;;;;;5094307;23;20172;-94
2022/04/17 21:17:18;;;;;;;1.55;0.80;;;16.60;99.90;;;;;;5118338;23;20172;-96
2022/04/17 21:19:19;;;;;;;1.55;0.90;;;16.20;99.90;;;;;;5093784;23;20149;-96
2022/04/17 21:21:20;;;;;;;1.83;0.93;;;15.90;99.90;;;;;;5093615;23;20167;-94
2022/04/17 21:23:20;;;;;;;2.63;0.90;;;15.60;99.90;;;;;;5093832;23;20157;-94
2022/04/17 21:25:21;;;;;;;2.00;0.80;;;15.50;99.90;;;;;;5094130;23;20464;-95
2022/04/17 21:27:22;;;;;;;2.00;0.80;;;15.30;99.90;;;;;;5093637;23;20180;-96
2022/04/17 21:29:23;;;;;;;3.17;0.88;;;15.20;99.90;;;;;;5118327;23;20191;-96
2022/04/17 21:31:24;;;;;;;2.22;0.90;;;15.20;99.90;;;;;;5118798;23;20153;-95
2022/04/17 21:33:25;;;;;;;1.90;0.80;;;15.10;99.90;;;;;;5118375;23;20192;-94
2022/04/17 21:35:25;;;;;;;2.72;0.80;;;15.10;99.90;;;;;;5118464;23;20606;-95
2022/04/17 21:37:26;;;;;;;1.40;0.80;;;15.20;99.90;;;;;;5118198;23;20259;-95
2022/04/17 21:39:27;;;;;;;1.92;0.80;;;15.20;99.90;;;;;;5093418;23;20149;-96
2022/04/17 21:41:31;;;;;;;3.17;0.80;;;15.10;99.90;;;;;;5118272;23;20175;-95
2022/04/17 21:43:32;;;;;;;1.52;0.80;;;15.00;99.90;;;;;;5118057;23;20212;-94
2022/04/17 21:45:33;;;;;;;3.58;0.63;;;15.10;99.90;;;;;;5093748;23;20149;-96
2022/04/17 21:47:34;;;;;;;1.27;0.80;;;15.20;99.90;;;;;;5093530;23;20574;-95
2022/04/17 21:49:35;;;;;;;2.55;0.93;;;15.20;99.90;;;;;;5093426;23;20200;-94
2022/04/17 21:51:36;;;;;;;2.05;0.90;;;15.20;99.90;;;;;;5093152;23;20153;-94
2022/04/17 21:53:39;;;;;;;2.45;0.80;;;15.20;99.90;;;;;;5093277;23;20189;-96
2022/04/17 21:55:39;;;;;;;2.80;0.90;;;15.10;99.90;;;;;;5118613;23;20152;-94
2022/04/17 21:57:40;;;;;;;3.20;0.88;;;15.10;99.90;;;;;;5094452;23;20489;-95
2022/04/17 22:04:36;;;;;;;3.65;0.73;;;15.10;99.90;;;;;;5119060;23;20154;-94
2022/04/17 22:06:36;;;;;;;1.27;0.80;;;15.00;99.90;;;;;;5094923;23;20151;-94
2022/04/17 22:08:37;;;;;;;1.83;0.85;;;14.90;99.90;;;;;;5118403;23;20172;-93
2022/04/17 22:10:38;;;;;;;4.43;1.10;;;14.80;99.90;;;;;;5094004;23;20476;-93
2022/04/17 22:12:39;;;;;;;1.75;0.95;;;14.80;99.90;;;;;;5094732;23;20188;-94
2022/04/17 22:14:40;;;;;;;1.75;0.80;;;14.70;99.90;;;;;;5117937;23;20163;-95
2022/04/17 22:16:42;;;;;;;1.88;0.63;;;14.70;99.90;;;;;;5093322;23;20163;-94
2022/04/17 22:18:42;;;;;;;1.92;0.70;;;14.70;99.90;;;;;;5094226;23;20172;-94
2022/04/17 22:20:43;;;;;;;2.17;0.80;;;14.80;99.90;;;;;;5093209;23;20196;-96
2022/04/17 22:22:44;;;;;;;2.78;0.85;;;14.80;99.90;;;;;;5094903;23;20247;-95
2022/04/17 22:24:46;;;;;;;2.13;0.80;;;14.60;99.90;;;;;;5094388;23;20160;-95
2022/04/17 22:26:48;;;;;;;1.20;0.60;;;14.40;99.90;;;;;;5096039;23;20159;-94
2022/04/17 22:28:49;;;;;;;2.10;0.80;;;14.50;99.90;;;;;;5095904;23;20604;-95
2022/04/17 22:30:50;;;;;;;2.47;1.00;;;14.60;99.90;;;;;;5120097;23;20234;-94
2022/04/17 22:32:51;;;;;;;2.72;0.63;;;14.60;99.90;;;;;;5096038;23;20192;-94
2022/04/17 22:34:54;;;;;;;2.10;0.90;;;14.60;99.90;;;;;;5099765;23;20227;-95
2022/04/17 22:36:55;;;;;;;3.70;1.00;;;14.50;99.90;;;;;;5095139;23;20180;-95
2022/04/17 22:38:56;;;;;;;2.50;0.98;;;14.50;99.90;;;;;;5119897;23;20140;-95
2022/04/17 22:40:57;;;;;;;1.95;0.70;;;14.40;99.90;;;;;;5119649;23;20156;-95
2022/04/17 22:42:59;;;;;;;2.75;0.95;;;14.40;99.90;;;;;;5119599;23;20687;-94
2022/04/17 22:45:00;;;;;;;2.17;0.95;;;14.40;99.90;;;;;;5095333;23;20156;-95
2022/04/17 22:47:01;;;;;;;2.60;0.80;;;14.40;99.90;;;;;;5097051;23;20145;-93
2022/04/17 22:49:01;;;;;;;2.10;0.80;;;14.50;99.90;;;;;;5120908;23;20211;-93
2022/04/17 22:51:03;;;;;;;1.85;0.90;;;14.40;99.90;;;;;;5120475;23;20148;-94
2022/04/17 22:53:04;;;;;;;1.15;0.70;;;14.40;99.90;;;;;;5094623;23;20184;-93
2022/04/17 22:55:09;;;;;;;3.53;0.70;;;14.30;99.90;;;;;;5095089;23;20153;-95
2022/04/17 22:57:10;;;;;;;4.55;0.88;;;14.40;99.90;;;;;;5096189;23;20177;-95
2022/04/17 22:59:11;;;;;;;4.00;1.00;;;14.30;99.90;;;;;;5119754;23;20148;-94
2022/04/17 23:01:18;;;;;;;1.88;1.05;;;14.30;99.90;;;;;;5094971;23;20176;-94
2022/04/17 23:03:18;;;;;;;2.95;0.82;;;14.30;99.90;;;;;;5095164;23;20192;-95
2022/04/17 23:05:22;;;;;;;2.85;0.93;;;14.30;99.90;;;;;;5120024;23;20152;-94
2022/04/17 23:07:25;;;;;;;5.63;1.00;;;14.30;99.90;;;;;;5094778;23;20173;-94
2022/04/17 23:09:28;;;;;;;2.10;1.10;;;14.20;99.90;;;;;;5095645;23;20157;-96
2022/04/17 23:11:29;;;;;;;2.25;0.80;;;14.20;99.90;;;;;;5119077;23;20182;-95
2022/04/17 23:13:30;;;;;;;3.45;0.82;;;14.20;99.90;;;;;;5095245;23;20654;-95
2022/04/17 23:15:31;;;;;;;1.00;0.80;;;14.00;99.90;;;;;;5094756;23;20196;-96
2022/04/17 23:17:33;;;;;;;1.20;0.60;;;13.90;99.90;;;;;;5094903;23;20172;-94
2022/04/17 23:19:34;;;;;;;3.75;0.98;;;13.70;99.90;;;;;;5119824;23;20155;-93
2022/04/17 23:21:36;;;;;;;1.38;0.45;;;13.80;99.90;;;;;;5119364;23;20153;-94
2022/04/17 23:23:36;;;;;;;1.42;0.60;;;13.90;99.90;;;;;;5094505;23;20188;-95
2022/04/17 23:25:41;;;;;;;2.10;0.90;;;13.80;99.90;;;;;;5094385;23;20149;-94
2022/04/17 23:27:42;;;;;;;0.93;0.60;;;13.80;99.90;;;;;;5095294;23;20177;-94
2022/04/17 23:29:43;;;;;;;4.10;0.68;;;13.60;99.90;;;;;;5095426;23;20606;-95
2022/04/17 23:31:46;;;;;;;1.40;0.70;;;13.60;99.90;;;;;;5095228;23;20217;-95
2022/04/17 23:33:46;;;;;;;2.58;0.70;;;13.60;99.90;;;;;;5094925;23;20292;-95
2022/04/17 23:35:47;;;;;;;3.83;0.70;;;13.40;99.90;;;;;;5094218;23;20161;-95
2022/04/17 23:37:49;;;;;;;3.83;0.70;;;13.30;99.90;;;;;;5119628;23;20176;-95
2022/04/17 23:39:50;;;;;;;1.63;0.60;;;13.10;99.90;;;;;;5094632;23;20153;-94
2022/04/17 23:41:51;;;;;;;1.20;0.60;;;13.00;99.90;;;;;;5094949;23;20157;-94
2022/04/17 23:43:52;;;;;;;1.15;0.70;;;13.00;99.90;;;;;;5095529;23;20172;-95
2022/04/17 23:45:53;;;;;;;1.02;0.57;;;12.80;99.90;;;;;;5094238;23;20604;-94
2022/04/17 23:47:54;;;;;;;1.85;0.60;;;12.70;99.90;;;;;;5144129;23;20254;-94
2022/04/17 23:49:54;;;;;;;0.90;0.60;;;12.70;99.90;;;;;;5119299;23;20157;-94
2022/04/17 23:51:56;;;;;;;1.85;0.75;;;12.70;99.90;;;;;;5119082;23;20155;-96
2022/04/17 23:53:57;;;;;;;1.33;0.70;;;12.60;99.90;;;;;;5119204;23;20152;-94
2022/04/17 23:55:57;;;;;;;2.33;0.70;;;12.60;99.90;;;;;;5119862;23;20155;-94
2022/04/17 23:57:59;;;;;;;2.17;0.80;;;12.70;99.90;;;;;;5094783;23;20176;-93
2022/04/17 23:59:59;;;;;;;3.63;0.70;;;12.60;99.90;;;;;;5095541;23;20165;-96
